EKRK/RKE METAR and TAF weather

Enter ICAO airport designator
Station Type Date Time Source
EKRK METAR 2022/01/29 01:20 UTC NOAA

EKRK 290120Z AUTO 22012KT 9999 -RA OVC009/// 03/02 Q1017


Station Type Date Time Source
EKRK Decoded METAR 2022/01/29 01:20 UTC NOAA

Koebenhavn / Roskilde, Denmark (EKRK) 55-35N 012-08E 44M
Jan 28, 2022 - 08:20 PM EST / 2022.01.29 0120 UTC
Wind: from the SW (220 degrees) at 14 MPH (12 KT):0
Visibility: greater than 7 mile(s):0
Sky conditions: overcast
Weather: light rain
Temperature: 37 F (3 C)
Dew Point: 35 F (2 C)
Relative Humidity: 93%
Pressure (altimeter): 30.03 in. Hg (1017 hPa)
ob: EKRK 290120Z AUTO 22012KT 9999 -RA OVC009/// 03/02 Q1017
cycle: 1

Station Type Date Time Source
EKRK TAF 2020/10/13 06:33 UTC NOAA

TAF EKRK 130526Z 1306/1415 09004KT 0200 FG VV001
TEMPO 1306/1307 6000 NSW NSC
BECMG 1307/1309 9999 NSW FEW020

Example: see airport list